sensor_id;sensor_type;location;lat;lon;timestamp;pressure;altitude;pressure_sealevel;temperature;humidity
54540;BME280;40438;52.992;18.604;2022-09-13T00:00:10;100813.09;;;8.41;92.92
54540;BME280;40438;52.992;18.604;2022-09-13T00:02:37;100812.78;;;8.29;94.17
54540;BME280;40438;52.992;18.604;2022-09-13T00:05:03;100808.50;;;8.35;93.45
54540;BME280;40438;52.992;18.604;2022-09-13T00:07:29;100800.34;;;8.43;93.20
54540;BME280;40438;52.992;18.604;2022-09-13T00:09:54;100800.34;;;8.43;93.13
54540;BME280;40438;52.992;18.604;2022-09-13T00:12:20;100799.75;;;8.41;92.76
54540;BME280;40438;52.992;18.604;2022-09-13T00:14:46;100794.03;;;8.44;93.29
54540;BME280;40438;52.992;18.604;2022-09-13T00:17:12;100791.97;;;8.53;92.24
54540;BME280;40438;52.992;18.604;2022-09-13T00:19:39;100792.22;;;8.58;91.37
54540;BME280;40438;52.992;18.604;2022-09-13T00:22:04;100788.72;;;8.57;90.86
54540;BME280;40438;52.992;18.604;2022-09-13T00:24:30;100795.44;;;8.47;90.83
54540;BME280;40438;52.992;18.604;2022-09-13T00:26:56;100793.47;;;8.27;91.86
54540;BME280;40438;52.992;18.604;2022-09-13T00:29:22;100786.22;;;8.14;93.30
54540;BME280;40438;52.992;18.604;2022-09-13T00:31:47;100790.94;;;8.12;93.16
54540;BME280;40438;52.992;18.604;2022-09-13T00:34:13;100781.84;;;8.00;92.93
54540;BME280;40438;52.992;18.604;2022-09-13T00:36:40;100777.69;;;7.91;93.27
54540;BME280;40438;52.992;18.604;2022-09-13T00:39:06;100775.00;;;7.91;92.85
54540;BME280;40438;52.992;18.604;2022-09-13T00:41:32;100774.41;;;7.96;93.13
54540;BME280;40438;52.992;18.604;2022-09-13T00:43:59;100764.81;;;8.01;92.77
54540;BME280;40438;52.992;18.604;2022-09-13T00:46:30;100772.84;;;8.08;92.52
54540;BME280;40438;52.992;18.604;2022-09-13T00:49:01;100770.00;;;8.09;92.24
54540;BME280;40438;52.992;18.604;2022-09-13T00:51:30;100773.06;;;8.06;91.74
54540;BME280;40438;52.992;18.604;2022-09-13T00:53:58;100773.66;;;8.08;91.78
54540;BME280;40438;52.992;18.604;2022-09-13T00:56:29;100765.28;;;8.11;92.02
54540;BME280;40438;52.992;18.604;2022-09-13T00:59:00;100765.47;;;8.10;91.34
54540;BME280;40438;52.992;18.604;2022-09-13T01:01:31;100767.25;;;7.96;92.47
54540;BME280;40438;52.992;18.604;2022-09-13T01:03:58;100759.09;;;8.04;92.76
54540;BME280;40438;52.992;18.604;2022-09-13T01:06:27;100755.00;;;8.08;92.38
54540;BME280;40438;52.992;18.604;2022-09-13T01:08:55;100759.50;;;8.08;92.31
54540;BME280;40438;52.992;18.604;2022-09-13T01:11:26;100755.88;;;8.16;91.78
54540;BME280;40438;52.992;18.604;2022-09-13T01:13:54;100757.72;;;8.15;92.73
54540;BME280;40438;52.992;18.604;2022-09-13T01:16:20;100754.59;;;8.11;92.79
54540;BME280;40438;52.992;18.604;2022-09-13T01:18:46;100754.19;;;8.14;92.59
54540;BME280;40438;52.992;18.604;2022-09-13T01:21:42;100741.88;;;8.07;92.43
54540;BME280;40438;52.992;18.604;2022-09-13T01:24:42;100743.50;;;8.08;91.65
54540;BME280;40438;52.992;18.604;2022-09-13T01:27:26;100746.78;;;8.03;92.38
54540;BME280;40438;52.992;18.604;2022-09-13T01:30:10;100747.16;;;8.00;92.65
54540;BME280;40438;52.992;18.604;2022-09-13T01:32:53;100741.19;;;7.98;93.71
54540;BME280;40438;52.992;18.604;2022-09-13T01:35:29;100741.81;;;7.94;93.67
54540;BME280;40438;52.992;18.604;2022-09-13T01:38:05;100739.31;;;7.92;93.69
54540;BME280;40438;52.992;18.604;2022-09-13T01:40:47;100734.38;;;7.89;94.70
54540;BME280;40438;52.992;18.604;2022-09-13T01:43:26;100739.31;;;7.92;94.33
54540;BME280;40438;52.992;18.604;2022-09-13T01:46:03;100738.22;;;7.80;95.09
54540;BME280;40438;52.992;18.604;2022-09-13T01:48:39;100734.72;;;7.79;95.89
54540;BME280;40438;52.992;18.604;2022-09-13T01:51:17;100739.25;;;7.79;96.71
54540;BME280;40438;52.992;18.604;2022-09-13T01:54:08;100734.94;;;7.78;96.56
54540;BME280;40438;52.992;18.604;2022-09-13T01:56:40;100740.88;;;7.80;97.13
54540;BME280;40438;52.992;18.604;2022-09-13T01:59:13;100734.16;;;7.84;96.84
54540;BME280;40438;52.992;18.604;2022-09-13T02:01:45;100733.16;;;7.91;95.63
54540;BME280;40438;52.992;18.604;2022-09-13T02:04:16;100738.88;;;7.88;95.96
54540;BME280;40438;52.992;18.604;2022-09-13T02:06:45;100734.34;;;7.82;96.83
54540;BME280;40438;52.992;18.604;2022-09-13T02:09:16;100730.81;;;7.75;96.17
54540;BME280;40438;52.992;18.604;2022-09-13T02:11:46;100727.50;;;7.73;96.47
54540;BME280;40438;52.992;18.604;2022-09-13T02:14:15;100723.38;;;7.71;96.21
54540;BME280;40438;52.992;18.604;2022-09-13T02:16:47;100714.38;;;7.72;95.63
54540;BME280;40438;52.992;18.604;2022-09-13T02:19:18;100714.59;;;7.77;95.49
54540;BME280;40438;52.992;18.604;2022-09-13T02:21:46;100714.66;;;7.83;95.53
54540;BME280;40438;52.992;18.604;2022-09-13T02:24:15;100708.50;;;7.83;95.52
54540;BME280;40438;52.992;18.604;2022-09-13T02:26:44;100705.44;;;7.86;95.27
54540;BME280;40438;52.992;18.604;2022-09-13T02:29:18;100697.81;;;7.83;94.85
54540;BME280;40438;52.992;18.604;2022-09-13T02:31:50;100706.41;;;7.78;95.11
54540;BME280;40438;52.992;18.604;2022-09-13T02:34:21;100704.31;;;7.74;94.59
54540;BME280;40438;52.992;18.604;2022-09-13T02:36:49;100702.69;;;7.73;95.04
54540;BME280;40438;52.992;18.604;2022-09-13T02:39:20;100697.31;;;7.66;95.26
54540;BME280;40438;52.992;18.604;2022-09-13T02:41:51;100698.53;;;7.63;95.54
54540;BME280;40438;52.992;18.604;2022-09-13T02:44:24;100691.13;;;7.59;94.85
54540;BME280;40438;52.992;18.604;2022-09-13T02:47:05;100687.00;;;7.56;95.77
54540;BME280;40438;52.992;18.604;2022-09-13T02:49:41;100695.00;;;7.56;95.83
54540;BME280;40438;52.992;18.604;2022-09-13T02:52:12;100685.75;;;7.52;96.19
54540;BME280;40438;52.992;18.604;2022-09-13T02:54:42;100682.94;;;7.60;95.64
54540;BME280;40438;52.992;18.604;2022-09-13T02:57:18;100682.03;;;7.47;96.54
54540;BME280;40438;52.992;18.604;2022-09-13T02:59:45;100696.94;;;7.41;95.71
54540;BME280;40438;52.992;18.604;2022-09-13T03:02:15;100680.75;;;7.36;96.37
54540;BME280;40438;52.992;18.604;2022-09-13T03:04:43;100680.53;;;7.37;96.47
54540;BME280;40438;52.992;18.604;2022-09-13T03:07:09;100679.88;;;7.35;96.92
54540;BME280;40438;52.992;18.604;2022-09-13T03:09:36;100666.13;;;7.32;98.60
54540;BME280;40438;52.992;18.604;2022-09-13T03:12:20;100669.88;;;7.37;98.12
54540;BME280;40438;52.992;18.604;2022-09-13T03:14:55;100663.50;;;7.38;97.89
54540;BME280;40438;52.992;18.604;2022-09-13T03:17:37;100655.50;;;7.38;97.45
54540;BME280;40438;52.992;18.604;2022-09-13T03:20:09;100652.66;;;7.40;96.96
54540;BME280;40438;52.992;18.604;2022-09-13T03:22:53;100646.88;;;7.30;97.46
54540;BME280;40438;52.992;18.604;2022-09-13T03:25:30;100654.81;;;7.23;97.67
54540;BME280;40438;52.992;18.604;2022-09-13T03:28:09;100638.25;;;7.28;96.78
54540;BME280;40438;52.992;18.604;2022-09-13T03:30:43;100638.84;;;7.23;96.58
54540;BME280;40438;52.992;18.604;2022-09-13T03:33:22;100633.03;;;7.19;96.38
54540;BME280;40438;52.992;18.604;2022-09-13T03:35:55;100633.66;;;7.15;97.25
54540;BME280;40438;52.992;18.604;2022-09-13T03:38:26;100623.00;;;7.15;96.81
54540;BME280;40438;52.992;18.604;2022-09-13T03:40:58;100634.06;;;7.18;96.67
54540;BME280;40438;52.992;18.604;2022-09-13T03:43:27;100632.44;;;7.17;97.14
54540;BME280;40438;52.992;18.604;2022-09-13T03:45:56;100619.94;;;7.18;96.89
54540;BME280;40438;52.992;18.604;2022-09-13T03:48:25;100617.09;;;7.26;96.78
54540;BME280;40438;52.992;18.604;2022-09-13T03:50:52;100615.47;;;7.25;96.48
54540;BME280;40438;52.992;18.604;2022-09-13T03:53:20;100613.06;;;7.30;96.17
54540;BME280;40438;52.992;18.604;2022-09-13T03:55:48;100607.28;;;7.27;96.92
54540;BME280;40438;52.992;18.604;2022-09-13T03:58:15;100605.41;;;7.20;96.81
54540;BME280;40438;52.992;18.604;2022-09-13T04:00:42;100609.72;;;7.21;96.99
54540;BME280;40438;52.992;18.604;2022-09-13T04:03:08;100600.25;;;7.19;96.61
54540;BME280;40438;52.992;18.604;2022-09-13T04:05:35;100601.25;;;7.11;97.34
54540;BME280;40438;52.992;18.604;2022-09-13T04:08:01;100595.28;;;7.09;98.12
54540;BME280;40438;52.992;18.604;2022-09-13T04:10:28;100589.97;;;7.09;98.29
54540;BME280;40438;52.992;18.604;2022-09-13T04:12:54;100596.50;;;7.07;98.42
54540;BME280;40438;52.992;18.604;2022-09-13T04:15:19;100594.41;;;7.02;99.14
54540;BME280;40438;52.992;18.604;2022-09-13T04:17:45;100591.31;;;6.98;99.76
54540;BME280;40438;52.992;18.604;2022-09-13T04:20:11;100586.44;;;7.02;99.14
54540;BME280;40438;52.992;18.604;2022-09-13T04:22:38;100583.50;;;6.97;99.81
54540;BME280;40438;52.992;18.604;2022-09-13T04:25:04;100584.53;;;6.96;99.22
54540;BME280;40438;52.992;18.604;2022-09-13T04:27:30;100585.56;;;6.95;99.72
54540;BME280;40438;52.992;18.604;2022-09-13T04:29:56;100591.13;;;7.00;99.53
54540;BME280;40438;52.992;18.604;2022-09-13T04:32:21;100595.25;;;7.03;99.19
54540;BME280;40438;52.992;18.604;2022-09-13T04:34:47;100602.19;;;7.04;98.88
54540;BME280;40438;52.992;18.604;2022-09-13T04:37:13;100596.91;;;7.10;98.98
54540;BME280;40438;52.992;18.604;2022-09-13T04:39:40;100603.91;;;7.11;98.57
54540;BME280;40438;52.992;18.604;2022-09-13T04:42:06;100597.16;;;7.15;98.65
54540;BME280;40438;52.992;18.604;2022-09-13T04:44:32;100600.47;;;7.17;98.19
54540;BME280;40438;52.992;18.604;2022-09-13T04:46:58;100596.59;;;7.20;98.28
54540;BME280;40438;52.992;18.604;2022-09-13T04:49:24;100582.47;;;7.26;98.63
54540;BME280;40438;52.992;18.604;2022-09-13T04:51:49;100587.19;;;7.24;99.28
54540;BME280;40438;52.992;18.604;2022-09-13T04:54:15;100583.34;;;7.33;98.95
54540;BME280;40438;52.992;18.604;2022-09-13T04:56:43;100588.09;;;7.44;98.38
54540;BME280;40438;52.992;18.604;2022-09-13T04:59:09;100587.94;;;7.46;98.24
54540;BME280;40438;52.992;18.604;2022-09-13T05:01:35;100579.53;;;7.49;98.40
54540;BME280;40438;52.992;18.604;2022-09-13T05:04:02;100580.19;;;7.58;99.01
54540;BME280;40438;52.992;18.604;2022-09-13T05:06:27;100576.28;;;7.60;99.27
54540;BME280;40438;52.992;18.604;2022-09-13T05:08:54;100575.09;;;7.63;99.00
54540;BME280;40438;52.992;18.604;2022-09-13T05:11:20;100576.94;;;7.69;99.79
54540;BME280;40438;52.992;18.604;2022-09-13T05:13:49;100570.22;;;7.80;99.25
54540;BME280;40438;52.992;18.604;2022-09-13T05:16:15;100564.28;;;7.84;99.79
54540;BME280;40438;52.992;18.604;2022-09-13T05:18:40;100574.16;;;7.90;100.00
54540;BME280;40438;52.992;18.604;2022-09-13T05:21:06;100572.75;;;8.01;100.00
54540;BME280;40438;52.992;18.604;2022-09-13T05:23:32;100561.28;;;8.07;100.00
54540;BME280;40438;52.992;18.604;2022-09-13T05:25:59;100563.78;;;8.16;100.00
54540;BME280;40438;52.992;18.604;2022-09-13T05:28:26;100562.34;;;8.26;100.00
54540;BME280;40438;52.992;18.604;2022-09-13T05:30:55;100570.34;;;8.33;100.00
54540;BME280;40438;52.992;18.604;2022-09-13T05:33:23;100569.38;;;8.41;100.00
54540;BME280;40438;52.992;18.604;2022-09-13T05:35:49;100563.41;;;8.52;100.00
54540;BME280;40438;52.992;18.604;2022-09-13T05:38:15;100565.28;;;8.65;100.00
54540;BME280;40438;52.992;18.604;2022-09-13T05:40:40;100569.78;;;8.71;100.00
54540;BME280;40438;52.992;18.604;2022-09-13T05:43:06;100567.34;;;8.82;100.00
54540;BME280;40438;52.992;18.604;2022-09-13T05:45:32;100562.16;;;8.94;100.00
54540;BME280;40438;52.992;18.604;2022-09-13T05:47:59;100556.59;;;9.09;100.00
54540;BME280;40438;52.992;18.604;2022-09-13T05:50:25;100551.44;;;9.21;100.00
54540;BME280;40438;52.992;18.604;2022-09-13T05:52:51;100547.13;;;9.26;100.00
54540;BME280;40438;52.992;18.604;2022-09-13T05:55:17;100546.25;;;9.39;100.00
54540;BME280;40438;52.992;18.604;2022-09-13T05:57:43;100538.19;;;9.52;100.00
54540;BME280;40438;52.992;18.604;2022-09-13T06:00:10;100536.28;;;9.60;100.00
54540;BME280;40438;52.992;18.604;2022-09-13T06:02:38;100540.59;;;9.67;100.00
54540;BME280;40438;52.992;18.604;2022-09-13T06:05:06;100529.00;;;9.80;100.00
54540;BME280;40438;52.992;18.604;2022-09-13T06:07:32;100536.56;;;9.90;100.00
54540;BME280;40438;52.992;18.604;2022-09-13T06:09:58;100531.59;;;9.93;100.00
54540;BME280;40438;52.992;18.604;2022-09-13T06:12:24;100528.66;;;10.02;100.00
54540;BME280;40438;52.992;18.604;2022-09-13T06:14:49;100525.06;;;10.14;100.00
54540;BME280;40438;52.992;18.604;2022-09-13T06:17:15;100521.72;;;10.26;100.00
54540;BME280;40438;52.992;18.604;2022-09-13T06:19:41;100525.56;;;10.36;100.00
54540;BME280;40438;52.992;18.604;2022-09-13T06:22:08;100517.88;;;10.47;100.00
54540;BME280;40438;52.992;18.604;2022-09-13T06:24:33;100518.84;;;10.52;100.00
54540;BME280;40438;52.992;18.604;2022-09-13T06:26:59;100513.59;;;10.64;100.00
54540;BME280;40438;52.992;18.604;2022-09-13T06:29:25;100521.75;;;10.76;100.00
54540;BME280;40438;52.992;18.604;2022-09-13T06:31:51;100522.50;;;10.83;100.00
54540;BME280;40438;52.992;18.604;2022-09-13T06:34:16;100525.47;;;10.93;100.00
54540;BME280;40438;52.992;18.604;2022-09-13T06:36:42;100521.03;;;11.05;100.00
54540;BME280;40438;52.992;18.604;2022-09-13T06:39:09;100518.56;;;11.22;100.00
54540;BME280;40438;52.992;18.604;2022-09-13T06:41:35;100515.97;;;11.34;100.00
54540;BME280;40438;52.992;18.604;2022-09-13T06:44:01;100515.00;;;11.47;100.00
54540;BME280;40438;52.992;18.604;2022-09-13T06:46:29;100519.59;;;11.58;100.00
54540;BME280;40438;52.992;18.604;2022-09-13T06:48:57;100516.13;;;11.69;100.00
54540;BME280;40438;52.992;18.604;2022-09-13T06:51:24;100522.63;;;11.80;100.00
54540;BME280;40438;52.992;18.604;2022-09-13T06:53:51;100516.50;;;11.91;100.00
54540;BME280;40438;52.992;18.604;2022-09-13T06:56:19;100525.63;;;12.02;100.00
54540;BME280;40438;52.992;18.604;2022-09-13T06:58:48;100525.22;;;12.17;100.00
54540;BME280;40438;52.992;18.604;2022-09-13T07:01:15;100523.50;;;12.34;100.00
54540;BME280;40438;52.992;18.604;2022-09-13T07:03:43;100525.38;;;12.45;100.00
54540;BME280;40438;52.992;18.604;2022-09-13T07:06:10;100519.44;;;12.55;100.00
54540;BME280;40438;52.992;18.604;2022-09-13T07:08:37;100515.59;;;12.63;100.00
54540;BME280;40438;52.992;18.604;2022-09-13T07:11:03;100514.44;;;12.70;100.00
54540;BME280;40438;52.992;18.604;2022-09-13T07:13:30;100504.50;;;12.83;100.00
54540;BME280;40438;52.992;18.604;2022-09-13T07:15:56;100502.63;;;12.95;100.00
54540;BME280;40438;52.992;18.604;2022-09-13T07:18:22;100508.56;;;13.09;100.00
54540;BME280;40438;52.992;18.604;2022-09-13T07:20:47;100495.31;;;13.19;100.00
54540;BME280;40438;52.992;18.604;2022-09-13T07:23:13;100502.94;;;13.34;100.00
54540;BME280;40438;52.992;18.604;2022-09-13T07:25:39;100496.22;;;13.48;100.00
54540;BME280;40438;52.992;18.604;2022-09-13T07:28:04;100494.28;;;13.60;100.00
54540;BME280;40438;52.992;18.604;2022-09-13T07:30:32;100491.34;;;13.74;100.00
54540;BME280;40438;52.992;18.604;2022-09-13T07:32:58;100479.94;;;13.83;100.00
54540;BME280;40438;52.992;18.604;2022-09-13T07:35:23;100483.72;;;13.99;100.00
54540;BME280;40438;52.992;18.604;2022-09-13T07:37:49;100484.38;;;14.06;99.90
54540;BME280;40438;52.992;18.604;2022-09-13T07:40:15;100488.63;;;14.19;99.99
54540;BME280;40438;52.992;18.604;2022-09-13T07:42:41;100478.25;;;14.28;99.68
54540;BME280;40438;52.992;18.604;2022-09-13T07:45:07;100479.41;;;14.32;99.11
54540;BME280;40438;52.992;18.604;2022-09-13T07:47:34;100473.44;;;14.30;99.74
54540;BME280;40438;52.992;18.604;2022-09-13T07:50:00;100473.25;;;14.36;99.50
54540;BME280;40438;52.992;18.604;2022-09-13T07:52:27;100468.28;;;14.45;99.32
54540;BME280;40438;52.992;18.604;2022-09-13T07:54:53;100463.56;;;14.52;98.83
54540;BME280;40438;52.992;18.604;2022-09-13T07:57:19;100466.94;;;14.59;98.72
54540;BME280;40438;52.992;18.604;2022-09-13T07:59:45;100466.50;;;14.68;98.90
54540;BME280;40438;52.992;18.604;2022-09-13T08:02:10;100462.88;;;14.79;98.58
54540;BME280;40438;52.992;18.604;2022-09-13T08:04:38;100454.84;;;14.84;97.35
54540;BME280;40438;52.992;18.604;2022-09-13T08:07:03;100461.72;;;14.92;96.51
54540;BME280;40438;52.992;18.604;2022-09-13T08:09:29;100468.00;;;14.97;96.25
54540;BME280;40438;52.992;18.604;2022-09-13T08:11:55;100457.56;;;15.06;96.60
54540;BME280;40438;52.992;18.604;2022-09-13T08:14:22;100454.75;;;15.18;95.47
54540;BME280;40438;52.992;18.604;2022-09-13T08:16:47;100452.13;;;15.23;94.79
54540;BME280;40438;52.992;18.604;2022-09-13T08:19:14;100453.25;;;15.27;94.74
54540;BME280;40438;52.992;18.604;2022-09-13T08:21:42;100448.16;;;15.30;94.64
54540;BME280;40438;52.992;18.604;2022-09-13T08:24:14;100463.66;;;15.40;94.79
54540;BME280;40438;52.992;18.604;2022-09-13T08:26:40;100463.16;;;15.43;94.74
54540;BME280;40438;52.992;18.604;2022-09-13T08:29:06;100449.44;;;15.50;94.11
54540;BME280;40438;52.992;18.604;2022-09-13T08:31:32;100452.25;;;15.60;94.13
54540;BME280;40438;52.992;18.604;2022-09-13T08:33:58;100448.72;;;15.82;93.72
54540;BME280;40438;52.992;18.604;2022-09-13T08:36:24;100447.06;;;16.08;91.37
54540;BME280;40438;52.992;18.604;2022-09-13T08:38:53;100443.16;;;16.25;90.69
54540;BME280;40438;52.992;18.604;2022-09-13T08:41:37;100445.22;;;16.51;90.28
54540;BME280;40438;52.992;18.604;2022-09-13T08:44:16;100439.63;;;16.67;87.65
54540;BME280;40438;52.992;18.604;2022-09-13T08:46:45;100433.06;;;16.96;86.50
54540;BME280;40438;52.992;18.604;2022-09-13T08:49:15;100426.34;;;17.03;85.29
54540;BME280;40438;52.992;18.604;2022-09-13T08:51:45;100422.34;;;17.31;85.74
54540;BME280;40438;52.992;18.604;2022-09-13T08:54:14;100418.84;;;17.36;83.59
54540;BME280;40438;52.992;18.604;2022-09-13T08:56:45;100424.00;;;17.32;82.26
54540;BME280;40438;52.992;18.604;2022-09-13T08:59:32;100427.22;;;17.19;81.98
54540;BME280;40438;52.992;18.604;2022-09-13T09:02:10;100430.69;;;17.14;82.99
54540;BME280;40438;52.992;18.604;2022-09-13T09:04:45;100437.78;;;17.26;82.75
54540;BME280;40438;52.992;18.604;2022-09-13T09:07:17;100424.53;;;17.29;82.00
54540;BME280;40438;52.992;18.604;2022-09-13T09:09:49;100423.97;;;17.22;82.71
54540;BME280;40438;52.992;18.604;2022-09-13T09:12:22;100429.38;;;17.22;83.15
54540;BME280;40438;52.992;18.604;2022-09-13T09:14:57;100410.66;;;17.10;82.30
54540;BME280;40438;52.992;18.604;2022-09-13T09:17:29;100409.06;;;17.20;83.04
54540;BME280;40438;52.992;18.604;2022-09-13T09:20:02;100410.41;;;17.17;82.82
54540;BME280;40438;52.992;18.604;2022-09-13T09:22:33;100411.00;;;17.29;81.80
54540;BME280;40438;52.992;18.604;2022-09-13T09:25:01;100399.91;;;17.41;81.92
54540;BME280;40438;52.992;18.604;2022-09-13T09:27:29;100394.78;;;17.60;81.27
54540;BME280;40438;52.992;18.604;2022-09-13T09:29:56;100392.38;;;17.74;79.57
54540;BME280;40438;52.992;18.604;2022-09-13T09:32:37;100384.28;;;17.84;79.14
54540;BME280;40438;52.992;18.604;2022-09-13T09:35:12;100384.56;;;17.88;78.66
54540;BME280;40438;52.992;18.604;2022-09-13T09:37:41;100375.91;;;17.96;77.38
54540;BME280;40438;52.992;18.604;2022-09-13T09:40:13;100366.13;;;17.84;79.65
54540;BME280;40438;52.992;18.604;2022-09-13T09:42:40;100366.94;;;17.70;80.32
54540;BME280;40438;52.992;18.604;2022-09-13T09:45:23;100365.56;;;17.72;79.98
54540;BME280;40438;52.992;18.604;2022-09-13T09:47:52;100361.50;;;17.64;80.86
54540;BME280;40438;52.992;18.604;2022-09-13T09:50:22;100350.38;;;17.56;79.19
54540;BME280;40438;52.992;18.604;2022-09-13T09:52:52;100352.56;;;17.49;79.13
54540;BME280;40438;52.992;18.604;2022-09-13T09:55:26;100340.63;;;17.50;79.96
54540;BME280;40438;52.992;18.604;2022-09-13T09:57:54;100343.88;;;17.42;80.19
54540;BME280;40438;52.992;18.604;2022-09-13T10:00:22;100331.44;;;17.46;81.18
54540;BME280;40438;52.992;18.604;2022-09-13T10:02:51;100321.69;;;17.50;80.40
54540;BME280;40438;52.992;18.604;2022-09-13T10:05:18;100331.44;;;17.56;81.25
54540;BME280;40438;52.992;18.604;2022-09-13T10:07:51;100328.72;;;17.61;80.40
54540;BME280;40438;52.992;18.604;2022-09-13T10:10:21;100318.72;;;17.51;77.44
54540;BME280;40438;52.992;18.604;2022-09-13T10:12:51;100334.38;;;17.44;76.73
54540;BME280;40438;52.992;18.604;2022-09-13T10:15:19;100328.97;;;17.34;76.44
54540;BME280;40438;52.992;18.604;2022-09-13T10:18:11;100326.81;;;17.26;77.10
54540;BME280;40438;52.992;18.604;2022-09-13T10:20:38;100327.06;;;17.19;77.66
54540;BME280;40438;52.992;18.604;2022-09-13T10:23:24;100321.91;;;17.17;78.82
54540;BME280;40438;52.992;18.604;2022-09-13T10:26:04;100321.09;;;17.17;79.65
54540;BME280;40438;52.992;18.604;2022-09-13T10:28:35;100316.50;;;17.07;79.47
54540;BME280;40438;52.992;18.604;2022-09-13T10:31:06;100318.34;;;16.97;80.16
54540;BME280;40438;52.992;18.604;2022-09-13T10:33:35;100301.56;;;16.94;80.27
54540;BME280;40438;52.992;18.604;2022-09-13T10:36:04;100308.03;;;16.93;81.18
54540;BME280;40438;52.992;18.604;2022-09-13T10:38:33;100303.19;;;16.90;81.52
54540;BME280;40438;52.992;18.604;2022-09-13T10:41:02;100305.88;;;16.85;82.14
54540;BME280;40438;52.992;18.604;2022-09-13T10:43:31;100302.38;;;16.85;81.99
54540;BME280;40438;52.992;18.604;2022-09-13T10:46:02;100286.91;;;16.80;81.78
54540;BME280;40438;52.992;18.604;2022-09-13T10:48:29;100287.47;;;16.82;82.02
54540;BME280;40438;52.992;18.604;2022-09-13T10:51:05;100278.03;;;16.85;82.45
54540;BME280;40438;52.992;18.604;2022-09-13T10:53:36;100266.66;;;16.83;83.61
54540;BME280;40438;52.992;18.604;2022-09-13T10:56:03;100259.34;;;16.83;83.66
54540;BME280;40438;52.992;18.604;2022-09-13T10:58:29;100246.94;;;16.87;83.81
54540;BME280;40438;52.992;18.604;2022-09-13T11:01:20;100250.69;;;16.81;83.20
54540;BME280;40438;52.992;18.604;2022-09-13T11:07:03;100254.50;;;16.96;81.69
54540;BME280;40438;52.992;18.604;2022-09-13T11:09:35;100253.97;;;17.14;80.52
54540;BME280;40438;52.992;18.604;2022-09-13T11:12:10;100260.78;;;17.32;80.18
54540;BME280;40438;52.992;18.604;2022-09-13T11:14:51;100262.09;;;17.50;80.56
54540;BME280;40438;52.992;18.604;2022-09-13T11:17:28;100255.59;;;17.66;77.67
54540;BME280;40438;52.992;18.604;2022-09-13T11:20:14;100258.56;;;17.85;77.52
54540;BME280;40438;52.992;18.604;2022-09-13T11:23:25;100251.25;;;17.91;76.77
54540;BME280;40438;52.992;18.604;2022-09-13T11:26:04;100247.16;;;18.03;76.65
54540;BME280;40438;52.992;18.604;2022-09-13T11:28:50;100239.25;;;18.17;75.03
54540;BME280;40438;52.992;18.604;2022-09-13T11:31:30;100243.56;;;18.23;75.70
54540;BME280;40438;52.992;18.604;2022-09-13T11:34:10;100246.31;;;18.18;75.36
54540;BME280;40438;52.992;18.604;2022-09-13T11:36:59;100238.72;;;18.10;75.63
54540;BME280;40438;52.992;18.604;2022-09-13T11:39:31;100238.72;;;18.10;75.66
54540;BME280;40438;52.992;18.604;2022-09-13T11:42:04;100231.69;;;18.04;75.79
54540;BME280;40438;52.992;18.604;2022-09-13T11:44:50;100233.84;;;18.07;76.36
54540;BME280;40438;52.992;18.604;2022-09-13T11:47:28;100224.13;;;18.06;76.36
54540;BME280;40438;52.992;18.604;2022-09-13T11:50:10;100220.34;;;18.02;75.95
54540;BME280;40438;52.992;18.604;2022-09-13T11:52:49;100216.25;;;18.04;77.19
54540;BME280;40438;52.992;18.604;2022-09-13T11:55:20;100203.00;;;17.98;77.29
54540;BME280;40438;52.992;18.604;2022-09-13T11:57:52;100209.50;;;17.97;77.02
54540;BME280;40438;52.992;18.604;2022-09-13T12:00:22;100200.53;;;18.01;77.03
54540;BME280;40438;52.992;18.604;2022-09-13T12:02:56;100211.38;;;18.01;76.83
54540;BME280;40438;52.992;18.604;2022-09-13T12:05:30;100202.97;;;18.08;77.50
54540;BME280;40438;52.992;18.604;2022-09-13T12:08:01;100192.66;;;18.10;76.35
54540;BME280;40438;52.992;18.604;2022-09-13T12:10:31;100186.97;;;18.12;75.47
54540;BME280;40438;52.992;18.604;2022-09-13T12:13:01;100186.94;;;18.17;75.45
54540;BME280;40438;52.992;18.604;2022-09-13T12:15:33;100178.53;;;18.13;74.81
54540;BME280;40438;52.992;18.604;2022-09-13T12:18:05;100185.63;;;18.14;75.68
54540;BME280;40438;52.992;18.604;2022-09-13T12:20:39;100179.06;;;18.20;75.24
54540;BME280;40438;52.992;18.604;2022-09-13T12:23:11;100189.38;;;18.18;76.76
54540;BME280;40438;52.992;18.604;2022-09-13T12:25:41;100182.06;;;18.19;75.66
54540;BME280;40438;52.992;18.604;2022-09-13T12:28:15;100181.75;;;18.20;75.55
54540;BME280;40438;52.992;18.604;2022-09-13T12:30:44;100179.03;;;18.30;74.73
54540;BME280;40438;52.992;18.604;2022-09-13T12:33:13;100179.59;;;18.17;73.67
54540;BME280;40438;52.992;18.604;2022-09-13T12:35:48;100168.56;;;18.08;72.79
54540;BME280;40438;52.992;18.604;2022-09-13T12:38:26;100169.09;;;18.05;73.29
54540;BME280;40438;52.992;18.604;2022-09-13T12:41:03;100166.41;;;18.05;73.57
54540;BME280;40438;52.992;18.604;2022-09-13T12:46:54;100165.91;;;17.88;73.64
54540;BME280;40438;52.992;18.604;2022-09-13T12:49:43;100164.25;;;17.97;74.39
54540;BME280;40438;52.992;18.604;2022-09-13T12:52:25;100159.69;;;17.93;74.73
54540;BME280;40438;52.992;18.604;2022-09-13T12:55:33;100156.13;;;18.02;74.94
54540;BME280;40438;52.992;18.604;2022-09-13T12:58:15;100147.44;;;18.00;75.23
54540;BME280;40438;52.992;18.604;2022-09-13T13:00:44;100141.47;;;18.03;75.67
54540;BME280;40438;52.992;18.604;2022-09-13T13:03:14;100139.00;;;18.07;74.97
54540;BME280;40438;52.992;18.604;2022-09-13T13:05:44;100139.00;;;18.07;75.26